createdAt,value
2022-11-21T00:02:05.285Z,40.22
2022-11-21T00:04:37.305Z,39.33
2022-11-21T00:07:09.262Z,40.60
2022-11-21T00:09:41.313Z,37.22
2022-11-21T00:12:13.249Z,40.75
2022-11-21T00:14:45.174Z,37.92
2022-11-21T00:17:17.463Z,42.70
2022-11-21T00:19:49.377Z,43.00
2022-11-21T00:22:21.365Z,34.67
2022-11-21T00:24:54.404Z,38.50
2022-11-21T00:27:26.467Z,40.10
2022-11-21T00:29:58.436Z,33.80
2022-11-21T00:32:30.365Z,38.17
2022-11-21T00:35:02.548Z,41.75
2022-11-21T00:37:35.227Z,38.78
2022-11-21T00:40:07.980Z,39.13
2022-11-21T00:42:39.929Z,37.83
2022-11-21T00:45:12.222Z,40.30
2022-11-21T00:47:44.295Z,36.20
2022-11-21T00:50:16.249Z,38.53
2022-11-21T00:52:48.213Z,41.17
2022-11-21T00:55:20.128Z,41.00
2022-11-21T00:57:52.225Z,39.13
2022-11-21T01:00:24.384Z,40.78
2022-11-21T01:02:56.455Z,43.45
2022-11-21T01:05:28.451Z,39.00
2022-11-21T01:08:00.416Z,39.70
2022-11-21T01:10:32.446Z,39.25
2022-11-21T01:13:04.485Z,36.70
2022-11-21T01:15:36.430Z,41.45
2022-11-21T01:18:08.413Z,36.67
2022-11-21T01:20:40.699Z,37.40
2022-11-21T01:23:12.670Z,36.53
2022-11-21T01:25:44.576Z,40.15
2022-11-21T01:28:16.551Z,42.13
2022-11-21T01:30:48.500Z,38.22
2022-11-21T01:33:20.468Z,35.03
2022-11-21T01:35:52.430Z,39.03
2022-11-21T01:38:24.382Z,41.08
2022-11-21T01:40:56.320Z,35.83
2022-11-21T01:43:28.305Z,41.38
2022-11-21T01:46:14.514Z,39.47
2022-11-21T01:48:54.727Z,42.10
2022-11-21T01:52:20.421Z,38.50
2022-11-21T01:55:05.891Z,39.25
2022-11-21T01:57:42.760Z,36.88
2022-11-21T02:00:28.634Z,41.25
2022-11-21T02:03:06.625Z,40.58
2022-11-21T02:05:40.218Z,37.30
2022-11-21T02:08:20.112Z,39.83
2022-11-21T02:11:25.648Z,44.10
2022-11-21T02:13:57.957Z,38.25
2022-11-21T02:16:30.093Z,41.15
2022-11-21T02:19:02.181Z,39.67
2022-11-21T02:22:05.608Z,44.17
2022-11-21T02:24:46.411Z,37.80
2022-11-21T02:27:19.068Z,40.55
2022-11-21T02:29:51.014Z,40.67
2022-11-21T02:32:26.307Z,42.38
2022-11-21T02:34:58.217Z,38.95
2022-11-21T02:37:31.973Z,41.75
2022-11-21T02:40:10.637Z,53.75
2022-11-21T02:42:54.548Z,42.25
2022-11-21T02:45:42.856Z,50.47
2022-11-21T02:48:15.393Z,46.33
2022-11-21T02:50:48.142Z,41.50
2022-11-21T02:53:20.344Z,43.67
2022-11-21T02:55:52.248Z,47.03
2022-11-21T02:58:24.287Z,41.30
2022-11-21T03:00:56.359Z,47.00
2022-11-21T03:03:28.347Z,46.95
2022-11-21T03:06:00.256Z,50.92
2022-11-21T03:08:32.205Z,51.97
2022-11-21T03:11:04.227Z,46.72
2022-11-21T03:13:36.311Z,39.33
2022-11-21T03:16:08.259Z,44.13
2022-11-21T03:18:40.209Z,42.95
2022-11-21T03:21:12.120Z,45.65
2022-11-21T03:23:44.100Z,40.03
2022-11-21T03:26:16.028Z,41.10
2022-11-21T03:28:48.026Z,46.30
2022-11-21T03:31:19.957Z,39.40
2022-11-21T03:33:51.895Z,46.28
2022-11-21T03:36:24.106Z,43.83
2022-11-21T03:39:00.178Z,46.65
2022-11-21T03:41:32.292Z,40.75
2022-11-21T03:44:09.067Z,42.03
2022-11-21T03:46:45.316Z,43.20
2022-11-21T03:49:17.607Z,42.03
2022-11-21T03:51:49.592Z,44.70
2022-11-21T03:54:21.545Z,46.80
2022-11-21T03:56:53.493Z,48.35
2022-11-21T03:59:26.358Z,41.70
2022-11-21T04:01:58.413Z,47.80
2022-11-21T04:04:30.645Z,51.75
2022-11-21T04:07:02.868Z,45.70
2022-11-21T04:09:34.899Z,49.30
2022-11-21T04:12:08.048Z,42.97
2022-11-21T04:14:40.177Z,43.00
2022-11-21T04:17:12.116Z,40.70
2022-11-21T04:19:44.072Z,46.28
2022-11-21T04:22:16.060Z,41.08
2022-11-21T04:24:48.007Z,46.35
2022-11-21T04:27:19.957Z,45.92
2022-11-21T04:29:51.888Z,44.88
2022-11-21T04:32:23.799Z,46.22
2022-11-21T04:34:55.771Z,45.13
2022-11-21T04:37:27.718Z,39.40
2022-11-21T04:39:59.659Z,47.63
2022-11-21T04:42:31.710Z,41.88
2022-11-21T04:45:04.655Z,53.40
2022-11-21T04:47:38.916Z,50.45
2022-11-21T04:50:15.215Z,46.50
2022-11-21T04:52:52.699Z,50.30
2022-11-21T04:55:29.877Z,50.60
2022-11-21T04:58:01.880Z,50.60
2022-11-21T05:00:34.720Z,47.78
2022-11-21T05:03:07.378Z,57.60
2022-11-21T05:05:39.321Z,47.35
2022-11-21T05:08:11.239Z,50.55
2022-11-21T05:11:02.564Z,48.50
2022-11-21T05:13:34.490Z,49.42
2022-11-21T05:16:07.295Z,45.72
2022-11-21T05:18:39.262Z,48.80
2022-11-21T05:21:12.937Z,56.22
2022-11-21T05:23:44.864Z,50.83
2022-11-21T05:26:16.815Z,48.45
2022-11-21T05:28:48.823Z,61.47
2022-11-21T05:31:20.823Z,48.40
2022-11-21T05:33:52.768Z,54.22
2022-11-21T05:36:24.731Z,55.47
2022-11-21T05:38:56.820Z,52.30
2022-11-21T05:41:28.863Z,47.63
2022-11-21T05:44:00.805Z,56.13
2022-11-21T05:46:32.761Z,51.65
2022-11-21T05:49:04.768Z,55.70
2022-11-21T05:51:36.879Z,56.65
2022-11-21T05:54:13.697Z,60.92
2022-11-21T05:56:45.651Z,57.05
2022-11-21T05:59:17.556Z,52.70
2022-11-21T06:02:08.127Z,56.25
2022-11-21T06:04:40.089Z,55.28
2022-11-21T06:07:12.080Z,54.47
2022-11-21T06:09:44.009Z,54.70
2022-11-21T06:12:15.947Z,47.55
2022-11-21T06:14:47.883Z,58.60
2022-11-21T06:17:19.844Z,58.70
2022-11-21T06:19:52.863Z,61.28
2022-11-21T06:22:24.784Z,53.33
2022-11-21T06:24:56.709Z,59.60
2022-11-21T06:27:30.022Z,52.72
2022-11-21T06:30:01.992Z,66.35
2022-11-21T06:32:38.190Z,60.42
2022-11-21T06:35:10.205Z,59.10
2022-11-21T06:37:42.137Z,59.70
2022-11-21T06:40:14.191Z,73.68
2022-11-21T06:42:46.107Z,59.65
2022-11-21T06:45:18.012Z,73.35
2022-11-21T06:47:49.993Z,66.78
2022-11-21T06:50:22.787Z,65.20
2022-11-21T06:52:57.560Z,59.47
2022-11-21T06:55:31.456Z,56.88
2022-11-21T06:58:03.406Z,56.38
2022-11-21T07:00:35.439Z,53.00
2022-11-21T07:03:07.415Z,55.00
2022-11-21T07:05:39.359Z,51.60
2022-11-21T07:08:13.484Z,55.72
2022-11-21T07:11:10.134Z,50.70
2022-11-21T07:13:37.942Z,64.38
2022-11-21T07:16:14.317Z,65.68
2022-11-21T07:18:46.244Z,69.00
2022-11-21T07:21:18.218Z,70.30
2022-11-21T07:23:50.215Z,66.40
2022-11-21T07:26:22.141Z,72.90
2022-11-21T07:28:54.156Z,63.47
2022-11-21T07:31:26.086Z,68.18
2022-11-21T07:33:58.026Z,66.95
2022-11-21T07:36:32.516Z,64.95
2022-11-21T07:39:06.552Z,60.50
2022-11-21T07:41:38.565Z,61.35
2022-11-21T07:44:10.591Z,62.45
2022-11-21T07:46:42.563Z,58.38
2022-11-21T07:49:14.533Z,55.90
2022-11-21T07:51:46.500Z,58.08
2022-11-21T07:54:18.486Z,43.40
2022-11-21T07:56:50.410Z,48.75
2022-11-21T07:59:22.545Z,63.92
2022-11-21T08:01:54.506Z,45.72
2022-11-21T08:04:26.777Z,46.60
2022-11-21T08:06:58.755Z,52.63
2022-11-21T08:09:30.739Z,51.72
2022-11-21T08:12:02.829Z,66.30
2022-11-21T08:14:34.856Z,64.55
2022-11-21T08:17:07.599Z,66.38
2022-11-21T08:19:39.554Z,78.38
2022-11-21T08:22:11.525Z,70.93
2022-11-21T08:24:43.575Z,78.93
2022-11-21T08:27:20.691Z,77.00
2022-11-21T08:29:52.794Z,69.72
2022-11-21T08:32:24.784Z,76.35
2022-11-21T08:34:56.738Z,76.05
2022-11-21T08:37:31.799Z,73.15
2022-11-21T08:40:04.272Z,69.88
2022-11-21T08:42:37.999Z,63.25
2022-11-21T08:45:10.632Z,67.88
2022-11-21T08:47:42.881Z,71.20
2022-11-21T08:50:15.424Z,68.20
2022-11-21T08:52:47.551Z,74.28
2022-11-21T08:55:19.617Z,62.72
2022-11-21T08:57:51.596Z,58.42
2022-11-21T09:00:23.789Z,56.28
2022-11-21T09:02:55.831Z,58.95
2022-11-21T09:05:27.782Z,54.42
2022-11-21T09:08:00.222Z,55.10
2022-11-21T09:10:32.168Z,57.75
2022-11-21T09:13:04.215Z,58.88
2022-11-21T09:15:54.454Z,55.95
2022-11-21T09:20:59.035Z,56.38
2022-11-21T09:23:31.067Z,55.05
2022-11-21T09:26:03.077Z,62.53
2022-11-21T09:28:36.031Z,57.35
2022-11-21T09:31:08.772Z,58.40
2022-11-21T09:33:40.745Z,56.50
2022-11-21T09:36:12.718Z,57.95
2022-11-21T09:38:44.705Z,53.90
2022-11-21T09:41:53.432Z,59.40
2022-11-21T09:47:38.225Z,52.80
2022-11-21T09:50:13.254Z,52.20
2022-11-21T09:52:58.170Z,54.33
2022-11-21T09:55:35.969Z,52.25
2022-11-21T09:58:40.696Z,56.38
2022-11-21T10:01:14.113Z,47.75
2022-11-21T10:03:49.122Z,57.72
2022-11-21T10:06:36.899Z,47.53
2022-11-21T10:09:31.888Z,44.67
2022-11-21T10:12:38.213Z,47.08
2022-11-21T10:15:34.921Z,44.47
2022-11-21T10:18:29.378Z,65.47
2022-11-21T10:21:35.273Z,43.20
2022-11-21T10:24:22.163Z,41.40
2022-11-21T10:27:03.241Z,39.58
2022-11-21T10:29:53.203Z,38.20
2022-11-21T10:32:37.191Z,39.42
2022-11-21T10:35:41.874Z,43.53
2022-11-21T10:38:26.281Z,41.03
2022-11-21T10:41:15.787Z,36.58
2022-11-21T10:44:47.717Z,40.75
2022-11-21T10:47:28.944Z,36.80
2022-11-21T10:50:09.636Z,41.90
2022-11-21T10:53:25.371Z,39.17
2022-11-21T10:56:06.918Z,39.75
2022-11-21T10:58:45.789Z,39.15
2022-11-21T11:01:31.865Z,46.67
2022-11-21T11:04:27.259Z,41.15
2022-11-21T11:07:34.636Z,37.25
2022-11-21T11:10:27.984Z,37.90
2022-11-21T11:16:11.601Z,41.58
2022-11-21T11:19:17.679Z,35.63
2022-11-21T11:21:50.759Z,36.72
2022-11-21T11:24:27.350Z,35.42
2022-11-21T11:27:02.639Z,31.65
2022-11-21T11:29:50.824Z,32.40
2022-11-21T11:32:23.455Z,39.88
2022-11-21T11:35:14.649Z,40.38
2022-11-21T11:38:10.550Z,34.22
2022-11-21T11:40:44.965Z,31.55
2022-11-21T11:44:01.526Z,33.70
2022-11-21T11:47:18.688Z,36.95
2022-11-21T11:50:13.267Z,30.33
2022-11-21T11:53:17.891Z,38.78
2022-11-21T11:56:16.371Z,41.78
2022-11-21T11:59:11.018Z,36.92
2022-11-21T12:01:56.304Z,32.00
2022-11-21T12:04:39.535Z,34.22
2022-11-21T12:08:39.081Z,41.08
2022-11-21T12:11:34.069Z,34.72
2022-11-21T12:14:40.468Z,43.88
2022-11-21T12:17:16.020Z,39.13
2022-11-21T12:19:52.252Z,38.25
2022-11-21T12:22:24.203Z,41.22
2022-11-21T12:24:56.204Z,44.13
2022-11-21T12:27:32.155Z,41.47
2022-11-21T12:31:10.977Z,33.60
2022-11-21T12:34:22.111Z,37.83
2022-11-21T12:37:51.450Z,50.35
2022-11-21T12:40:50.827Z,48.45
2022-11-21T12:43:49.887Z,40.37
2022-11-21T12:46:39.569Z,43.28
2022-11-21T12:50:22.358Z,46.78
2022-11-21T12:53:23.133Z,43.30
2022-11-21T12:56:06.358Z,42.15
2022-11-21T12:58:42.788Z,35.25
2022-11-21T13:01:55.571Z,39.13
2022-11-21T13:04:35.215Z,46.58
2022-11-21T13:07:08.601Z,34.05
2022-11-21T13:09:47.522Z,36.03
2022-11-21T13:12:52.124Z,30.73
2022-11-21T13:15:38.725Z,31.73
2022-11-21T13:18:36.506Z,30.27
2022-11-21T13:21:47.774Z,31.77
2022-11-21T13:24:44.670Z,28.00
2022-11-21T13:27:39.138Z,28.05
2022-11-21T13:30:11.487Z,27.27
2022-11-21T13:32:54.796Z,23.60
2022-11-21T13:35:26.777Z,22.50
2022-11-21T13:38:10.341Z,22.65
2022-11-21T13:41:02.336Z,25.45
2022-11-21T13:43:35.374Z,24.88
2022-11-21T13:46:07.909Z,24.48
2022-11-21T13:49:12.678Z,25.23
2022-11-21T13:51:53.776Z,28.98
2022-11-21T13:54:52.280Z,32.33
2022-11-21T13:57:27.117Z,30.00
2022-11-21T14:00:26.501Z,29.48
2022-11-21T14:03:16.924Z,31.57
2022-11-21T14:05:59.718Z,34.80
2022-11-21T14:08:31.974Z,30.23
2022-11-21T14:11:38.466Z,35.38
2022-11-21T14:14:10.738Z,34.95
2022-11-21T14:16:48.969Z,33.25
2022-11-21T14:19:21.189Z,33.63
2022-11-21T14:21:55.439Z,36.78
2022-11-21T14:24:28.364Z,36.58
2022-11-21T14:27:01.047Z,39.25
2022-11-21T14:29:41.255Z,39.92
2022-11-21T14:34:51.303Z,42.45
2022-11-21T14:37:23.390Z,43.22
2022-11-21T14:39:57.384Z,39.00
2022-11-21T14:42:39.360Z,39.40
2022-11-21T14:45:21.984Z,41.85
2022-11-21T14:47:54.514Z,37.00
2022-11-21T14:50:30.006Z,36.33
2022-11-21T14:53:04.314Z,40.65
2022-11-21T14:55:36.261Z,34.70
2022-11-21T14:58:10.358Z,34.70
2022-11-21T15:03:35.263Z,37.30
2022-11-21T15:06:11.338Z,36.35
2022-11-21T15:11:53.455Z,41.00
2022-11-21T15:14:38.016Z,41.30
2022-11-21T15:17:16.449Z,44.17
2022-11-21T15:20:23.347Z,40.50
2022-11-21T15:23:01.378Z,45.90
2022-11-21T15:25:47.246Z,41.80
2022-11-21T15:28:19.646Z,38.95
2022-11-21T15:31:18.651Z,39.08
2022-11-21T15:37:04.035Z,47.15
2022-11-21T15:39:36.292Z,42.00
2022-11-21T15:42:37.274Z,43.58
2022-11-21T15:45:19.813Z,44.40
2022-11-21T15:48:07.729Z,51.13
2022-11-21T15:50:40.000Z,43.58
2022-11-21T15:53:19.374Z,39.97
2022-11-21T15:55:51.855Z,49.10
2022-11-21T15:57:14.328Z,41.45
2022-11-21T15:58:23.858Z,44.08
2022-11-21T16:00:55.864Z,39.30
2022-11-21T16:03:27.924Z,44.15
2022-11-21T16:05:59.922Z,44.47
2022-11-21T16:08:32.011Z,43.65
2022-11-21T16:11:04.158Z,41.03
2022-11-21T16:13:36.135Z,45.45
2022-11-21T16:16:13.718Z,40.70
2022-11-21T16:18:47.005Z,42.13
2022-11-21T16:21:20.113Z,40.70
2022-11-21T16:23:52.652Z,41.40
2022-11-21T16:26:30.817Z,39.38
2022-11-21T16:29:05.835Z,44.97
2022-11-21T16:31:37.864Z,43.53
2022-11-21T16:34:09.847Z,39.00
2022-11-21T16:36:41.787Z,45.30
2022-11-21T16:39:18.173Z,48.28
2022-11-21T16:41:50.693Z,46.33
2022-11-21T16:44:22.612Z,48.75
2022-11-21T16:46:55.538Z,49.33
2022-11-21T16:49:27.723Z,50.05
2022-11-21T16:51:59.905Z,44.03
2022-11-21T16:54:31.822Z,45.38
2022-11-21T16:57:03.842Z,44.05
2022-11-21T16:59:35.841Z,45.40
2022-11-21T17:02:07.790Z,48.22
2022-11-21T17:04:39.713Z,46.65
2022-11-21T17:07:11.933Z,48.05
2022-11-21T17:09:44.010Z,41.00
2022-11-21T17:12:16.085Z,38.90
2022-11-21T17:14:48.248Z,39.03
2022-11-21T17:17:20.284Z,43.35
2022-11-21T17:19:54.610Z,41.88
2022-11-21T17:22:26.820Z,39.53
2022-11-21T17:24:58.797Z,37.13
2022-11-21T17:27:30.766Z,49.33
2022-11-21T17:30:02.747Z,42.67
2022-11-21T17:32:35.445Z,45.40
2022-11-21T17:35:08.216Z,45.47
2022-11-21T17:37:40.482Z,44.35
2022-11-21T17:40:13.091Z,41.80
2022-11-21T17:42:45.038Z,41.92
2022-11-21T17:45:17.120Z,40.33
2022-11-21T17:47:49.097Z,47.60
2022-11-21T17:50:21.249Z,41.83
2022-11-21T17:52:53.312Z,44.42
2022-11-21T17:55:25.301Z,45.45
2022-11-21T17:57:57.236Z,43.75
2022-11-21T18:00:29.309Z,51.15
2022-11-21T18:03:01.259Z,56.67
2022-11-21T18:05:33.192Z,45.85
2022-11-21T18:08:05.280Z,45.28
2022-11-21T18:10:43.228Z,54.22
2022-11-21T18:13:16.025Z,42.05
2022-11-21T18:15:48.204Z,46.53
2022-11-21T18:18:20.319Z,55.75
2022-11-21T18:20:52.242Z,50.45
2022-11-21T18:23:24.212Z,51.47
2022-11-21T18:25:56.312Z,50.65
2022-11-21T18:28:28.274Z,49.45
2022-11-21T18:31:19.696Z,53.25
2022-11-21T18:33:55.159Z,46.80
2022-11-21T18:36:29.308Z,50.13
2022-11-21T18:39:07.215Z,49.10
2022-11-21T18:41:44.234Z,45.80
2022-11-21T18:44:21.664Z,47.78
2022-11-21T18:46:54.307Z,40.85
2022-11-21T18:49:26.535Z,44.33
2022-11-21T18:51:59.609Z,42.28
2022-11-21T18:54:31.644Z,43.17
2022-11-21T18:57:03.896Z,38.22
2022-11-21T18:59:35.851Z,38.42
2022-11-21T19:02:09.359Z,44.42
2022-11-21T19:04:41.358Z,35.13
2022-11-21T19:07:13.361Z,42.40
2022-11-21T19:09:46.586Z,40.50
2022-11-21T19:12:18.724Z,51.80
2022-11-21T19:14:52.086Z,37.45
2022-11-21T19:17:24.044Z,42.85
2022-11-21T19:19:56.075Z,38.28
2022-11-21T19:22:28.037Z,34.58
2022-11-21T19:24:59.989Z,35.08
2022-11-21T19:27:31.940Z,38.70
2022-11-21T19:30:04.412Z,39.15
2022-11-21T19:32:36.848Z,40.22
2022-11-21T19:35:09.302Z,40.65
2022-11-21T19:37:41.284Z,38.40
2022-11-21T19:40:14.123Z,39.08
2022-11-21T19:42:46.109Z,41.72
2022-11-21T19:45:18.229Z,37.40
2022-11-21T19:47:56.937Z,38.05
2022-11-21T19:50:28.910Z,43.50
2022-11-21T19:53:00.850Z,43.55
2022-11-21T19:55:32.821Z,44.20
2022-11-21T19:58:04.783Z,48.60
2022-11-21T20:00:36.755Z,44.42
2022-11-21T20:03:09.880Z,45.67
2022-11-21T20:05:41.832Z,46.25
2022-11-21T20:08:17.675Z,46.65
2022-11-21T20:10:50.214Z,49.55
2022-11-21T20:13:22.151Z,49.50
2022-11-21T20:15:54.145Z,54.88
2022-11-21T20:18:26.082Z,51.92
2022-11-21T20:20:58.137Z,46.83
2022-11-21T20:23:30.094Z,55.90
2022-11-21T20:26:02.530Z,53.38
2022-11-21T20:28:36.441Z,50.50
2022-11-21T20:31:12.556Z,47.38
2022-11-21T20:33:48.358Z,50.72
2022-11-21T20:36:23.618Z,54.45
2022-11-21T20:38:59.167Z,55.83
2022-11-21T20:41:34.295Z,53.67
2022-11-21T20:47:08.879Z,52.35
2022-11-21T20:49:40.854Z,54.20
2022-11-21T20:55:05.660Z,45.25
2022-11-21T20:57:37.690Z,48.53
2022-11-21T21:00:11.731Z,48.25
2022-11-21T21:02:43.685Z,51.75
2022-11-21T21:05:15.751Z,46.05
2022-11-21T21:07:47.737Z,48.33
2022-11-21T21:10:22.747Z,43.00
2022-11-21T21:12:54.759Z,42.55
2022-11-21T21:15:26.755Z,54.40
2022-11-21T21:17:59.779Z,50.47
2022-11-21T21:20:36.462Z,51.58
2022-11-21T21:23:21.389Z,52.63
2022-11-21T21:25:53.402Z,53.80
2022-11-21T21:28:25.359Z,46.45
2022-11-21T21:30:57.500Z,59.92
2022-11-21T21:33:29.487Z,58.90
2022-11-21T21:36:11.520Z,59.55
2022-11-21T21:38:44.678Z,62.60
2022-11-21T21:41:16.778Z,58.10
2022-11-21T21:43:53.807Z,59.63
2022-11-21T21:46:27.811Z,64.13
2022-11-21T21:48:59.913Z,65.65
2022-11-21T21:51:32.488Z,59.17
2022-11-21T21:54:05.238Z,64.55
2022-11-21T21:56:37.175Z,74.93
2022-11-21T21:59:09.627Z,66.53
2022-11-21T22:01:42.956Z,70.03
2022-11-21T22:04:14.987Z,78.40
2022-11-21T22:06:46.917Z,71.28
2022-11-21T22:09:19.467Z,83.25
2022-11-21T22:11:51.398Z,75.50
2022-11-21T22:14:23.372Z,68.28
2022-11-21T22:16:55.395Z,68.18
2022-11-21T22:19:28.330Z,64.57
2022-11-21T22:22:00.374Z,63.40
2022-11-21T22:24:32.373Z,58.75
2022-11-21T22:27:04.438Z,57.78
2022-11-21T22:29:36.452Z,63.90
2022-11-21T22:32:08.415Z,58.90
2022-11-21T22:34:40.388Z,58.97
2022-11-21T22:37:12.445Z,59.38
2022-11-21T22:39:44.561Z,57.72
2022-11-21T22:42:16.544Z,55.80
2022-11-21T22:44:48.526Z,53.15
2022-11-21T22:47:21.528Z,58.80
2022-11-21T22:49:53.557Z,58.05
2022-11-21T22:52:25.791Z,58.78
2022-11-21T22:54:57.796Z,53.03
2022-11-21T22:57:29.740Z,39.65
2022-11-21T23:00:02.339Z,44.38
2022-11-21T23:02:35.597Z,33.67
2022-11-21T23:05:08.060Z,37.47
2022-11-21T23:07:40.165Z,34.75
2022-11-21T23:10:12.612Z,33.38
2022-11-21T23:12:44.587Z,37.00
2022-11-21T23:15:16.745Z,33.90
2022-11-21T23:17:52.618Z,41.75
2022-11-21T23:20:25.406Z,39.95
2022-11-21T23:22:57.553Z,33.17
2022-11-21T23:25:29.545Z,34.50
2022-11-21T23:28:01.446Z,34.03
2022-11-21T23:30:33.481Z,31.90
2022-11-21T23:33:05.436Z,34.97
2022-11-21T23:35:37.865Z,41.50
2022-11-21T23:38:10.845Z,32.35
2022-11-21T23:40:46.307Z,30.52
2022-11-21T23:43:19.271Z,32.58
2022-11-21T23:45:52.831Z,34.92
2022-11-21T23:48:25.000Z,34.83
2022-11-21T23:50:57.059Z,34.17
2022-11-21T23:53:29.125Z,30.63
2022-11-21T23:56:01.176Z,28.75
2022-11-21T23:58:33.191Z,31.58
